createdAt,value
2023-02-17T00:01:32.435Z,38.50
2023-02-17T00:04:00.796Z,35.10
2023-02-17T00:06:32.248Z,38.95
2023-02-17T00:09:00.301Z,33.58
2023-02-17T00:11:28.467Z,39.30
2023-02-17T00:13:56.614Z,39.65
2023-02-17T00:16:27.031Z,41.30
2023-02-17T00:18:59.186Z,38.05
2023-02-17T00:21:30.385Z,41.15
2023-02-17T00:23:59.616Z,41.58
2023-02-17T00:26:27.318Z,43.13
2023-02-17T00:28:54.644Z,43.97
2023-02-17T00:31:23.485Z,44.47
2023-02-17T00:33:55.863Z,42.28
2023-02-17T00:36:24.152Z,43.05
2023-02-17T00:38:51.718Z,38.72
2023-02-17T00:41:19.880Z,41.97
2023-02-17T00:43:48.663Z,38.85
2023-02-17T00:46:17.848Z,39.22
2023-02-17T00:48:47.132Z,39.22
2023-02-17T00:51:15.973Z,39.28
2023-02-17T00:53:44.389Z,38.80
2023-02-17T00:56:12.601Z,40.10
2023-02-17T00:58:41.427Z,38.35
2023-02-17T01:01:10.618Z,36.83
2023-02-17T01:03:42.151Z,39.50
2023-02-17T01:06:18.384Z,37.50
2023-02-17T01:08:45.868Z,37.35
2023-02-17T01:11:25.550Z,38.05
2023-02-17T01:13:55.130Z,39.35
2023-02-17T01:16:27.725Z,34.65
2023-02-17T01:18:56.304Z,35.03
2023-02-17T01:21:29.026Z,34.08
2023-02-17T01:24:00.299Z,31.63
2023-02-17T01:26:32.179Z,35.35
2023-02-17T01:29:03.321Z,33.20
2023-02-17T01:31:30.459Z,31.75
2023-02-17T01:34:02.652Z,31.95
2023-02-17T01:36:30.034Z,32.30
2023-02-17T01:38:57.595Z,28.75
2023-02-17T01:41:28.241Z,32.17
2023-02-17T01:44:21.901Z,34.05
2023-02-17T01:46:53.102Z,34.97
2023-02-17T01:49:39.408Z,33.72
2023-02-17T01:52:26.324Z,28.85
2023-02-17T01:55:06.445Z,30.55
2023-02-17T01:57:38.949Z,33.40
2023-02-17T02:00:09.595Z,27.77
2023-02-17T02:02:45.831Z,27.65
2023-02-17T02:05:17.696Z,33.30
2023-02-17T02:07:48.390Z,31.42
2023-02-17T02:10:19.930Z,38.47
2023-02-17T02:12:47.326Z,38.63
2023-02-17T02:15:20.842Z,36.75
2023-02-17T02:18:12.140Z,36.85
2023-02-17T02:21:22.821Z,28.75
2023-02-17T02:24:00.219Z,28.55
2023-02-17T02:27:15.373Z,28.05
2023-02-17T02:30:23.032Z,29.27
2023-02-17T02:33:12.614Z,35.00
2023-02-17T02:36:00.381Z,31.10
2023-02-17T02:38:46.889Z,28.95
2023-02-17T02:41:22.358Z,29.77
2023-02-17T02:43:53.179Z,38.78
2023-02-17T02:46:20.168Z,35.03
2023-02-17T02:48:48.466Z,35.42
2023-02-17T02:52:02.298Z,32.03
2023-02-17T02:57:27.230Z,27.73
2023-02-17T03:00:35.371Z,28.38
2023-02-17T03:03:41.604Z,31.10
2023-02-17T03:06:41.400Z,31.25
2023-02-17T03:09:22.339Z,31.63
2023-02-17T03:11:50.917Z,30.80
2023-02-17T03:14:21.562Z,29.45
2023-02-17T03:16:51.539Z,27.92
2023-02-17T03:19:23.395Z,28.80
2023-02-17T03:24:25.380Z,26.70
2023-02-17T03:26:52.820Z,32.92
2023-02-17T03:29:20.031Z,30.10
2023-02-17T03:31:47.456Z,33.58
2023-02-17T03:34:15.217Z,31.77
2023-02-17T03:36:42.736Z,35.45
2023-02-17T03:39:09.762Z,33.03
2023-02-17T03:41:36.945Z,29.02
2023-02-17T03:44:04.103Z,29.33
2023-02-17T03:46:31.367Z,30.13
2023-02-17T03:48:58.559Z,31.42
2023-02-17T03:51:26.268Z,31.85
2023-02-17T03:53:53.261Z,29.38
2023-02-17T03:56:20.852Z,25.30
2023-02-17T03:58:48.092Z,31.92
2023-02-17T04:01:15.414Z,27.60
2023-02-17T04:03:42.898Z,26.95
2023-02-17T04:06:11.353Z,31.55
2023-02-17T04:08:40.074Z,28.38
2023-02-17T04:11:09.695Z,28.63
2023-02-17T04:13:37.913Z,29.35
2023-02-17T04:16:08.770Z,31.15
2023-02-17T04:18:36.023Z,32.92
2023-02-17T04:21:04.801Z,33.28
2023-02-17T04:23:32.246Z,31.33
2023-02-17T04:25:59.455Z,26.63
2023-02-17T04:28:27.087Z,31.27
2023-02-17T04:30:54.397Z,29.95
2023-02-17T04:33:21.424Z,25.83
2023-02-17T04:35:48.719Z,30.33
2023-02-17T04:38:16.226Z,30.98
2023-02-17T04:40:43.614Z,32.17
2023-02-17T04:43:10.651Z,34.08
2023-02-17T04:45:38.871Z,37.47
2023-02-17T04:48:06.056Z,37.47
2023-02-17T04:50:33.244Z,36.10
2023-02-17T04:53:00.264Z,32.03
2023-02-17T04:55:27.585Z,31.40
2023-02-17T04:57:54.577Z,32.90
2023-02-17T05:00:22.080Z,32.28
2023-02-17T05:02:49.053Z,27.73
2023-02-17T05:05:18.764Z,28.42
2023-02-17T05:07:46.818Z,27.48
2023-02-17T05:10:17.010Z,30.45
2023-02-17T05:12:44.712Z,30.20
2023-02-17T05:15:12.922Z,30.45
2023-02-17T05:17:40.384Z,29.95
2023-02-17T05:20:09.802Z,27.17
2023-02-17T05:22:37.502Z,27.45
2023-02-17T05:25:05.531Z,26.67
2023-02-17T05:27:33.913Z,25.95
2023-02-17T05:30:01.429Z,25.52
2023-02-17T05:32:28.696Z,25.40
2023-02-17T05:34:55.975Z,26.77
2023-02-17T05:37:23.038Z,25.27
2023-02-17T05:39:50.263Z,29.45
2023-02-17T05:42:17.263Z,26.60
2023-02-17T05:44:44.473Z,30.05
2023-02-17T05:47:11.498Z,26.42
2023-02-17T05:49:38.800Z,24.23
2023-02-17T05:52:05.802Z,27.52
2023-02-17T05:54:33.023Z,27.10
2023-02-17T05:56:59.990Z,29.50
2023-02-17T05:59:27.556Z,26.08
2023-02-17T06:01:54.514Z,29.17
2023-02-17T06:04:21.786Z,28.55
2023-02-17T06:06:48.805Z,29.63
2023-02-17T06:09:16.016Z,28.27
2023-02-17T06:11:42.984Z,29.90
2023-02-17T06:14:10.505Z,24.77
2023-02-17T06:16:37.549Z,29.08
2023-02-17T06:19:05.203Z,30.45
2023-02-17T06:21:32.584Z,33.58
2023-02-17T06:23:59.798Z,42.58
2023-02-17T06:26:26.921Z,34.95
2023-02-17T06:28:54.289Z,35.28
2023-02-17T06:31:21.422Z,37.72
2023-02-17T06:33:48.796Z,30.15
2023-02-17T06:36:15.687Z,31.08
2023-02-17T06:38:42.982Z,34.78
2023-02-17T06:41:10.488Z,32.42
2023-02-17T06:43:38.683Z,33.92
2023-02-17T06:46:07.298Z,27.15
2023-02-17T06:48:35.166Z,26.45
2023-02-17T06:51:02.330Z,27.00
2023-02-17T06:53:29.615Z,33.03
2023-02-17T06:55:56.753Z,32.13
2023-02-17T06:58:23.895Z,34.50
2023-02-17T07:00:51.584Z,39.65
2023-02-17T07:03:18.930Z,41.10
2023-02-17T07:05:45.931Z,35.85
2023-02-17T07:08:13.106Z,34.53
2023-02-17T07:10:40.199Z,38.85
2023-02-17T07:13:07.385Z,37.45
2023-02-17T07:15:34.811Z,32.17
2023-02-17T07:18:03.018Z,32.75
2023-02-17T07:20:31.943Z,31.40
2023-02-17T07:23:00.712Z,35.30
2023-02-17T07:25:27.853Z,32.97
2023-02-17T07:27:55.060Z,31.83
2023-02-17T07:30:22.084Z,32.97
2023-02-17T07:32:49.355Z,31.25
2023-02-17T07:35:16.967Z,33.75
2023-02-17T07:37:44.285Z,32.95
2023-02-17T07:40:12.424Z,33.53
2023-02-17T07:42:39.854Z,32.78
2023-02-17T07:45:07.662Z,33.60
2023-02-17T07:47:35.004Z,35.10
2023-02-17T07:50:02.077Z,35.20
2023-02-17T07:52:29.345Z,33.45
2023-02-17T07:54:56.400Z,33.58
2023-02-17T07:57:23.585Z,36.78
2023-02-17T07:59:50.583Z,32.88
2023-02-17T08:02:17.866Z,33.10
2023-02-17T08:04:45.392Z,32.53
2023-02-17T08:07:12.617Z,34.88
2023-02-17T08:09:58.568Z,33.05
2023-02-17T08:12:44.402Z,35.25
2023-02-17T08:15:12.148Z,39.15
2023-02-17T08:17:39.478Z,37.90
2023-02-17T08:20:08.972Z,37.17
2023-02-17T08:22:37.165Z,32.33
2023-02-17T08:25:06.009Z,32.78
2023-02-17T08:27:33.449Z,34.75
2023-02-17T08:30:00.842Z,36.50
2023-02-17T08:32:28.544Z,34.30
2023-02-17T08:34:57.136Z,43.33
2023-02-17T08:37:25.366Z,44.28
2023-02-17T08:39:52.286Z,43.05
2023-02-17T08:42:19.836Z,43.17
2023-02-17T08:44:46.836Z,46.47
2023-02-17T08:47:14.147Z,40.25
2023-02-17T08:49:41.104Z,37.45
2023-02-17T08:52:08.569Z,40.70
2023-02-17T08:54:36.451Z,38.08
2023-02-17T08:57:04.291Z,39.75
2023-02-17T08:59:31.638Z,40.40
2023-02-17T09:01:58.975Z,38.28
2023-02-17T09:04:26.093Z,40.67
2023-02-17T09:06:58.614Z,38.88
2023-02-17T09:09:26.921Z,41.38
2023-02-17T09:11:57.433Z,40.85
2023-02-17T09:14:24.792Z,41.47
2023-02-17T09:16:54.792Z,43.65
2023-02-17T09:19:22.275Z,44.28
2023-02-17T09:21:49.863Z,45.58
2023-02-17T09:24:19.001Z,43.30
2023-02-17T09:26:46.314Z,44.88
2023-02-17T09:29:13.284Z,45.08
2023-02-17T09:31:40.869Z,45.00
2023-02-17T09:34:07.883Z,45.13
2023-02-17T09:36:41.198Z,48.38
2023-02-17T09:39:11.601Z,50.38
2023-02-17T09:41:48.246Z,44.63
2023-02-17T09:44:23.555Z,44.92
2023-02-17T09:47:11.525Z,45.60
2023-02-17T09:49:48.119Z,47.22
2023-02-17T09:52:29.580Z,45.15
2023-02-17T09:55:28.102Z,43.83
2023-02-17T09:58:04.532Z,47.58
2023-02-17T10:01:02.284Z,47.05
2023-02-17T10:04:02.570Z,56.10
2023-02-17T10:06:36.015Z,58.60
2023-02-17T10:09:17.764Z,53.38
2023-02-17T10:12:01.993Z,47.67
2023-02-17T10:15:08.691Z,31.52
2023-02-17T10:18:13.134Z,28.98
2023-02-17T10:20:49.270Z,21.13
2023-02-17T10:23:35.095Z,19.83
2023-02-17T10:26:45.365Z,22.95
2023-02-17T10:29:33.886Z,21.08
2023-02-17T10:32:24.330Z,19.38
2023-02-17T10:35:39.093Z,22.17
2023-02-17T10:38:50.386Z,16.85
2023-02-17T10:41:25.092Z,18.70
2023-02-17T10:43:52.919Z,19.25
2023-02-17T10:46:29.282Z,15.93
2023-02-17T10:48:59.469Z,17.00
2023-02-17T10:51:31.118Z,16.92
2023-02-17T10:54:25.694Z,19.58
2023-02-17T10:56:58.230Z,18.80
2023-02-17T10:59:39.777Z,14.00
2023-02-17T11:02:39.822Z,19.67
2023-02-17T11:05:09.010Z,17.15
2023-02-17T11:07:41.794Z,15.98
2023-02-17T11:10:32.548Z,17.85
2023-02-17T11:13:02.523Z,18.55
2023-02-17T11:15:37.232Z,18.70
2023-02-17T11:18:18.302Z,16.83
2023-02-17T11:20:47.190Z,18.00
2023-02-17T11:23:23.240Z,16.98
2023-02-17T11:26:07.875Z,17.05
2023-02-17T11:28:35.227Z,15.90
2023-02-17T11:31:04.851Z,17.88
2023-02-17T11:33:40.462Z,16.08
2023-02-17T11:36:13.510Z,14.68
2023-02-17T11:38:40.401Z,15.38
2023-02-17T11:41:08.754Z,18.48
2023-02-17T11:43:39.020Z,32.35
2023-02-17T11:46:33.667Z,34.03
2023-02-17T11:49:36.987Z,35.97
2023-02-17T11:52:24.178Z,27.17
2023-02-17T11:55:42.559Z,28.80
2023-02-17T11:59:00.186Z,25.05
2023-02-17T12:01:59.507Z,21.52
2023-02-17T12:04:32.411Z,18.40
2023-02-17T12:10:10.614Z,15.63
2023-02-17T12:12:56.057Z,15.57
2023-02-17T12:16:03.575Z,12.68
2023-02-17T12:19:14.183Z,10.98
2023-02-17T12:21:55.594Z,10.93
2023-02-17T12:25:15.564Z,11.52
2023-02-17T12:28:26.909Z,11.70
2023-02-17T12:31:21.238Z,10.43
2023-02-17T12:34:15.408Z,12.13
2023-02-17T12:36:43.908Z,9.80
2023-02-17T12:39:24.352Z,10.13
2023-02-17T12:42:01.319Z,10.02
2023-02-17T12:44:39.064Z,8.38
2023-02-17T12:47:59.312Z,9.50
2023-02-17T12:50:37.272Z,11.30
2023-02-17T12:53:14.073Z,9.57
2023-02-17T12:55:50.800Z,9.35
2023-02-17T12:58:28.677Z,9.05
2023-02-17T13:01:11.464Z,12.38
2023-02-17T13:03:38.944Z,11.65
2023-02-17T13:06:37.992Z,10.30
2023-02-17T13:09:17.502Z,10.57
2023-02-17T13:11:45.650Z,12.38
2023-02-17T13:14:25.959Z,10.32
2023-02-17T13:16:54.317Z,10.07
2023-02-17T13:19:35.390Z,9.98
2023-02-17T13:22:04.061Z,11.32
2023-02-17T13:24:51.030Z,9.73
2023-02-17T13:27:22.765Z,8.60
2023-02-17T13:30:26.133Z,6.93
2023-02-17T13:33:24.576Z,8.18
2023-02-17T13:35:51.631Z,7.38
2023-02-17T13:38:31.109Z,9.05
2023-02-17T13:41:04.328Z,9.73
2023-02-17T13:43:42.824Z,7.10
2023-02-17T13:46:19.797Z,6.82
2023-02-17T13:48:58.999Z,7.22
2023-02-17T13:51:30.570Z,8.05
2023-02-17T13:54:09.036Z,7.68
2023-02-17T13:56:36.170Z,8.35
2023-02-17T13:59:18.095Z,7.20
2023-02-17T14:01:46.991Z,7.95
2023-02-17T14:04:28.108Z,7.97
2023-02-17T14:06:59.979Z,7.47
2023-02-17T14:09:35.489Z,6.47
2023-02-17T14:12:08.138Z,7.18
2023-02-17T14:14:38.243Z,7.60
2023-02-17T14:17:27.502Z,6.90
2023-02-17T14:19:54.790Z,6.97
2023-02-17T14:22:30.725Z,9.30
2023-02-17T14:25:06.692Z,9.50
2023-02-17T14:27:47.740Z,6.53
2023-02-17T14:30:27.350Z,8.45
2023-02-17T14:33:17.163Z,8.35
2023-02-17T14:35:58.061Z,8.38
2023-02-17T14:38:39.677Z,7.45
2023-02-17T14:41:11.678Z,8.60
2023-02-17T14:43:38.706Z,9.65
2023-02-17T14:46:06.366Z,9.43
2023-02-17T14:48:33.545Z,9.18
2023-02-17T14:51:00.995Z,10.73
2023-02-17T14:53:30.854Z,11.43
2023-02-17T14:56:27.524Z,10.88
2023-02-17T14:58:54.565Z,11.00
2023-02-17T15:01:24.639Z,11.05
2023-02-17T15:03:53.625Z,9.45
2023-02-17T15:06:39.318Z,11.13
2023-02-17T15:09:13.217Z,11.02
2023-02-17T15:11:45.533Z,9.57
2023-02-17T15:14:25.289Z,9.00
2023-02-17T15:16:52.522Z,7.90
2023-02-17T15:19:19.576Z,10.52
2023-02-17T15:21:51.438Z,10.77
2023-02-17T15:24:31.172Z,8.02
2023-02-17T15:27:03.183Z,8.93
2023-02-17T15:29:30.669Z,9.73
2023-02-17T15:32:03.462Z,10.77
2023-02-17T15:34:34.996Z,9.30
2023-02-17T15:37:02.433Z,11.27
2023-02-17T15:39:29.564Z,9.13
2023-02-17T15:42:05.832Z,9.65
2023-02-17T15:44:45.167Z,9.68
2023-02-17T15:47:17.490Z,9.23
2023-02-17T15:49:45.285Z,8.73
2023-02-17T15:52:14.453Z,6.60
2023-02-17T15:54:43.032Z,7.15
2023-02-17T15:57:24.579Z,7.40
2023-02-17T15:59:55.150Z,6.93
2023-02-17T16:02:25.718Z,7.35
2023-02-17T16:04:52.842Z,7.32
2023-02-17T16:07:20.069Z,6.32
2023-02-17T16:09:47.052Z,6.63
2023-02-17T16:12:26.539Z,6.80
2023-02-17T16:14:55.239Z,7.60
2023-02-17T16:17:22.887Z,6.40
2023-02-17T16:19:49.840Z,7.10
2023-02-17T16:22:17.298Z,7.95
2023-02-17T16:24:44.319Z,7.45
2023-02-17T16:27:16.726Z,8.77
2023-02-17T16:29:43.881Z,7.18
2023-02-17T16:32:13.146Z,7.60
2023-02-17T16:34:42.699Z,8.30
2023-02-17T16:37:17.003Z,8.15
2023-02-17T16:39:45.754Z,9.02
2023-02-17T16:42:14.764Z,9.50
2023-02-17T16:44:42.372Z,8.32
2023-02-17T16:47:20.813Z,6.40
2023-02-17T16:49:48.499Z,10.32
2023-02-17T16:52:34.000Z,7.22
2023-02-17T16:55:01.334Z,7.45
2023-02-17T16:57:28.717Z,10.88
2023-02-17T16:59:55.893Z,7.55
2023-02-17T17:02:23.194Z,9.07
2023-02-17T17:04:50.511Z,8.98
2023-02-17T17:07:18.032Z,7.78
2023-02-17T17:09:48.686Z,8.18
2023-02-17T17:12:23.499Z,8.70
2023-02-17T17:14:50.711Z,9.98
2023-02-17T17:17:18.075Z,10.20
2023-02-17T17:19:44.960Z,9.00
2023-02-17T17:22:12.511Z,9.65
2023-02-17T17:24:39.729Z,10.23
2023-02-17T17:27:07.116Z,11.23
2023-02-17T17:29:34.156Z,10.15
2023-02-17T17:32:02.367Z,10.82
2023-02-17T17:34:29.364Z,9.60
2023-02-17T17:36:57.347Z,9.07
2023-02-17T17:39:25.175Z,8.13
2023-02-17T17:41:52.541Z,8.35
2023-02-17T17:44:20.573Z,9.35
2023-02-17T17:46:47.871Z,9.13
2023-02-17T17:49:17.831Z,9.05
2023-02-17T17:51:45.353Z,7.35
2023-02-17T17:54:12.403Z,9.05
2023-02-17T17:56:43.133Z,8.23
2023-02-17T17:59:12.611Z,8.80
2023-02-17T18:01:40.351Z,7.20
2023-02-17T18:04:09.264Z,6.80
2023-02-17T18:06:46.786Z,8.68
2023-02-17T18:09:31.767Z,8.15
2023-02-17T18:12:07.371Z,6.95
2023-02-17T18:14:38.171Z,7.78
2023-02-17T18:17:07.789Z,8.13
2023-02-17T18:19:35.210Z,7.63
2023-02-17T18:22:02.755Z,6.85
2023-02-17T18:24:30.347Z,10.57
2023-02-17T18:26:57.658Z,9.88
2023-02-17T18:29:24.654Z,9.50
2023-02-17T18:31:52.499Z,7.55
2023-02-17T18:34:19.476Z,9.57
2023-02-17T18:36:46.730Z,7.70
2023-02-17T18:39:13.673Z,8.25
2023-02-17T18:41:40.908Z,8.95
2023-02-17T18:44:09.753Z,11.13
2023-02-17T18:46:39.838Z,8.77
2023-02-17T18:49:07.226Z,8.40
2023-02-17T18:51:34.677Z,7.80
2023-02-17T18:54:02.769Z,8.60
2023-02-17T18:56:33.163Z,7.45
2023-02-17T18:59:00.601Z,7.35
2023-02-17T19:01:33.092Z,7.38
2023-02-17T19:04:00.872Z,7.85
2023-02-17T19:06:33.639Z,7.38
2023-02-17T19:09:04.272Z,8.15
2023-02-17T19:11:33.216Z,7.60
2023-02-17T19:14:02.330Z,8.50
2023-02-17T19:16:32.041Z,7.50
2023-02-17T19:19:00.561Z,8.18
2023-02-17T19:21:28.286Z,7.75
2023-02-17T19:23:56.119Z,7.28
2023-02-17T19:26:23.488Z,9.40
2023-02-17T19:28:50.521Z,9.88
2023-02-17T19:31:20.377Z,7.97
2023-02-17T19:33:48.123Z,9.13
2023-02-17T19:36:21.739Z,8.02
2023-02-17T19:38:50.260Z,8.68
2023-02-17T19:41:18.957Z,7.63
2023-02-17T19:43:46.196Z,8.95
2023-02-17T19:46:18.040Z,9.10
2023-02-17T19:48:45.544Z,8.57
2023-02-17T19:51:13.916Z,10.35
2023-02-17T19:53:43.060Z,7.95
2023-02-17T19:56:32.345Z,8.48
2023-02-17T19:58:59.969Z,7.45
2023-02-17T20:01:31.135Z,7.93
2023-02-17T20:04:04.376Z,7.45
2023-02-17T20:06:41.486Z,7.15
2023-02-17T20:09:15.658Z,6.88
2023-02-17T20:11:45.025Z,9.73
2023-02-17T20:14:12.720Z,6.78
2023-02-17T20:16:41.066Z,8.18
2023-02-17T20:19:08.283Z,11.30
2023-02-17T20:21:38.506Z,7.45
2023-02-17T20:24:06.369Z,8.13
2023-02-17T20:26:41.335Z,9.20
2023-02-17T20:29:09.807Z,7.13
2023-02-17T20:31:39.853Z,11.73
2023-02-17T20:34:20.628Z,8.43
2023-02-17T20:36:47.903Z,9.63
2023-02-17T20:39:14.862Z,8.93
2023-02-17T20:41:42.237Z,8.65
2023-02-17T20:44:12.317Z,9.90
2023-02-17T20:46:42.767Z,9.48
2023-02-17T20:49:10.522Z,9.38
2023-02-17T20:51:37.850Z,8.60
2023-02-17T20:54:05.256Z,9.13
2023-02-17T20:56:38.714Z,8.63
2023-02-17T20:59:08.948Z,8.52
2023-02-17T21:01:36.762Z,9.85
2023-02-17T21:04:03.706Z,10.02
2023-02-17T21:06:42.900Z,8.40
2023-02-17T21:09:18.552Z,8.02
